Time;durP1;ratioP1;P1;durP2;ratioP2;P2;SDS_P1;SDS_P2;PMS_P1;PMS_P2;Temp;Humidity;BMP_temperature;BMP_pressure;BME280_temperature;BME280_humidity;BME280_pressure;Samples;Min_cycle;Max_cycle;Signal;HPM_P1;HPM_P2
2022/08/19 00:02:05;;;;;;;5.55;3.30;;;15.70;99.90;;;;;;5056350;28;20402;-71
2022/08/19 00:04:35;;;;;;;5.35;3.40;;;15.80;99.90;;;;;;5023331;28;20492;-77
2022/08/19 00:07:04;;;;;;;7.13;3.35;;;15.80;99.90;;;;;;5056150;28;20055;-77
2022/08/19 00:09:29;;;;;;;7.22;3.58;;;15.60;99.90;;;;;;5039568;28;20076;-77
2022/08/19 00:11:57;;;;;;;6.70;3.67;;;15.70;99.90;;;;;;5022929;28;20455;-70
2022/08/19 00:14:25;;;;;;;6.05;3.83;;;15.70;99.90;;;;;;5022995;28;20041;-75
2022/08/19 00:16:54;;;;;;;6.60;3.30;;;15.70;99.90;;;;;;5038795;28;20046;-77
2022/08/19 00:19:20;;;;;;;5.00;3.22;;;15.70;99.90;;;;;;5056035;28;20036;-77
2022/08/19 00:21:47;;;;;;;4.75;2.97;;;15.80;99.90;;;;;;5056226;28;20051;-75
2022/08/19 00:24:14;;;;;;;6.25;3.50;;;15.70;99.90;;;;;;5056080;28;20079;-75
2022/08/19 00:26:41;;;;;;;4.90;3.10;;;15.40;99.90;;;;;;5023154;28;20518;-74
2022/08/19 00:29:09;;;;;;;4.55;2.83;;;15.60;99.90;;;;;;5022819;28;20040;-77
2022/08/19 00:31:35;;;;;;;5.88;3.50;;;15.50;99.90;;;;;;5039226;28;20050;-70
2022/08/19 00:34:02;;;;;;;5.25;3.25;;;15.60;99.90;;;;;;5022614;28;20128;-78
2022/08/19 00:36:29;;;;;;;4.53;2.72;;;15.50;99.90;;;;;;5039328;28;20039;-77
2022/08/19 00:38:55;;;;;;;5.20;2.80;;;15.60;99.90;;;;;;5038820;28;20106;-70
2022/08/19 00:41:23;;;;;;;3.38;2.60;;;15.40;99.90;;;;;;5072254;28;20044;-78
2022/08/19 00:44:06;;;;;;;5.45;3.05;;;15.50;99.90;;;;;;5039029;28;20124;-75
2022/08/19 00:46:33;;;;;;;5.57;3.17;;;15.40;99.90;;;;;;5039170;28;20076;-78
2022/08/19 00:49:02;;;;;;;5.25;3.05;;;15.40;99.90;;;;;;5055530;28;20039;-75
2022/08/19 00:51:30;;;;;;;5.05;3.28;;;15.40;99.90;;;;;;5055532;28;20037;-77
2022/08/19 00:53:58;;;;;;;6.32;3.17;;;15.40;99.90;;;;;;5038785;28;20446;-70
2022/08/19 00:56:26;;;;;;;7.10;3.83;;;15.40;99.90;;;;;;5055320;28;20049;-70
2022/08/19 00:58:55;;;;;;;3.70;2.88;;;15.30;99.90;;;;;;5038745;28;20048;-77
2022/08/19 01:01:21;;;;;;;6.18;3.22;;;15.50;99.90;;;;;;5055521;28;20511;-78
2022/08/19 01:03:46;;;;;;;6.18;3.88;;;15.30;99.90;;;;;;5038683;28;20040;-70
2022/08/19 01:06:12;;;;;;;5.53;3.30;;;15.30;99.90;;;;;;5005853;28;20039;-70
2022/08/19 01:08:38;;;;;;;5.85;3.47;;;15.30;99.90;;;;;;5038512;28;20123;-70
2022/08/19 01:11:04;;;;;;;5.90;3.22;;;15.10;99.90;;;;;;5055124;28;20475;-75
2022/08/19 01:13:32;;;;;;;5.70;3.72;;;15.00;99.90;;;;;;5037812;28;20051;-70
2022/08/19 01:16:05;;;;;;;5.38;3.40;;;15.10;99.90;;;;;;5055157;28;20089;-77
2022/08/19 01:18:35;;;;;;;5.35;3.50;;;15.10;99.90;;;;;;5055295;28;20040;-78
2022/08/19 01:21:17;;;;;;;6.05;2.92;;;15.00;99.90;;;;;;5055046;28;20127;-75
2022/08/19 01:23:44;;;;;;;5.40;3.40;;;15.10;99.90;;;;;;5039014;28;20037;-77
2022/08/19 01:26:14;;;;;;;4.35;3.30;;;15.00;99.90;;;;;;5021907;28;20040;-70
2022/08/19 01:28:41;;;;;;;5.78;3.03;;;15.00;99.90;;;;;;5039490;28;20040;-74
2022/08/19 01:31:11;;;;;;;5.45;3.70;;;15.10;99.90;;;;;;5059097;28;20406;-71
2022/08/19 01:33:37;;;;;;;5.15;3.10;;;15.10;99.90;;;;;;5059012;28;20136;-70
2022/08/19 01:36:05;;;;;;;6.25;3.63;;;15.10;99.90;;;;;;5042448;28;20032;-75
2022/08/19 01:38:36;;;;;;;5.60;3.65;;;15.10;99.90;;;;;;5059300;28;20467;-77
2022/08/19 01:41:02;;;;;;;7.70;4.50;;;15.10;99.90;;;;;;5042571;28;20076;-77
2022/08/19 01:43:28;;;;;;;7.47;4.10;;;15.10;99.90;;;;;;5025916;28;20553;-70
2022/08/19 01:45:54;;;;;;;6.60;4.40;;;15.10;99.90;;;;;;5042583;28;20041;-77
2022/08/19 01:48:20;;;;;;;7.88;4.43;;;15.10;99.90;;;;;;5009342;28;20059;-74
2022/08/19 01:50:47;;;;;;;6.53;4.38;;;15.00;99.90;;;;;;5058851;28;20488;-77
2022/08/19 01:53:13;;;;;;;5.65;3.58;;;15.00;99.90;;;;;;5025997;28;20051;-78
2022/08/19 01:55:41;;;;;;;7.43;4.47;;;15.00;99.90;;;;;;5025574;28;20037;-77
2022/08/19 01:58:16;;;;;;;15.60;4.78;;;15.00;99.90;;;;;;5058592;28;20039;-78
2022/08/19 02:00:43;;;;;;;8.30;4.32;;;15.00;99.90;;;;;;5058514;28;20036;-71
2022/08/19 02:03:10;;;;;;;7.45;4.53;;;15.00;99.90;;;;;;5058456;28;20044;-71
2022/08/19 02:05:37;;;;;;;6.20;4.22;;;14.90;99.90;;;;;;5058519;28;20052;-75
2022/08/19 02:08:04;;;;;;;10.88;4.50;;;14.90;99.90;;;;;;5058660;28;20102;-77
2022/08/19 02:10:30;;;;;;;7.15;4.35;;;14.90;99.90;;;;;;5058438;28;20060;-78
2022/08/19 02:12:55;;;;;;;6.90;3.83;;;14.90;99.90;;;;;;5025370;28;20036;-70
2022/08/19 02:15:21;;;;;;;6.32;4.47;;;14.90;99.90;;;;;;5041637;28;20036;-75
2022/08/19 02:17:48;;;;;;;5.32;3.42;;;14.90;99.90;;;;;;5041659;28;20040;-78
2022/08/19 02:20:15;;;;;;;10.27;4.43;;;14.90;99.90;;;;;;5041048;28;20076;-77
2022/08/19 02:22:42;;;;;;;7.40;4.63;;;14.90;99.90;;;;;;5058190;28;20076;-75
2022/08/19 02:25:12;;;;;;;4.53;3.00;;;14.90;99.90;;;;;;5058607;28;20520;-77
2022/08/19 02:27:39;;;;;;;8.95;4.07;;;14.90;99.90;;;;;;5026214;28;20048;-75
2022/08/19 02:30:07;;;;;;;7.32;4.07;;;14.90;99.90;;;;;;5058077;28;20080;-74
2022/08/19 02:32:33;;;;;;;7.53;4.28;;;14.90;99.90;;;;;;5025166;28;20048;-77
2022/08/19 02:34:58;;;;;;;6.45;4.22;;;14.90;99.90;;;;;;5041547;28;20459;-75
2022/08/19 02:40:09;;;;;;;8.10;4.20;;;14.90;99.90;;;;;;5028574;28;20052;-75
2022/08/19 02:42:35;;;;;;;8.13;4.10;;;14.90;99.90;;;;;;5041183;28;20114;-77
2022/08/19 02:45:00;;;;;;;6.25;3.72;;;15.00;99.90;;;;;;5041158;28;20054;-79
2022/08/19 02:47:26;;;;;;;7.78;4.32;;;14.90;99.90;;;;;;5057764;28;20072;-71
2022/08/19 02:49:52;;;;;;;7.90;4.40;;;14.90;99.90;;;;;;5041366;28;20476;-70
2022/08/19 02:52:17;;;;;;;8.45;4.50;;;14.90;99.90;;;;;;5040873;28;20045;-70
2022/08/19 02:54:44;;;;;;;8.43;4.72;;;14.90;99.90;;;;;;5024526;28;20079;-70
2022/08/19 02:57:10;;;;;;;7.03;4.47;;;14.80;99.90;;;;;;5041221;28;20128;-77
2022/08/19 02:59:35;;;;;;;6.47;3.97;;;14.90;99.90;;;;;;5040972;28;20060;-77
2022/08/19 03:02:01;;;;;;;7.55;4.43;;;14.90;99.90;;;;;;5040819;28;20045;-75
2022/08/19 03:04:27;;;;;;;6.70;3.97;;;14.90;99.90;;;;;;5040936;28;20075;-74
2022/08/19 03:06:53;;;;;;;7.10;4.47;;;14.90;99.90;;;;;;5057413;28;20403;-77
2022/08/19 03:09:20;;;;;;;6.90;4.30;;;14.80;99.90;;;;;;5040793;28;20040;-78
2022/08/19 03:11:46;;;;;;;9.73;4.35;;;14.80;99.90;;;;;;5024387;28;20059;-77
2022/08/19 03:14:12;;;;;;;6.50;4.10;;;14.80;99.90;;;;;;5008246;28;20479;-78
2022/08/19 03:16:45;;;;;;;7.00;4.20;;;14.80;99.90;;;;;;5040820;28;20480;-70
2022/08/19 03:19:12;;;;;;;7.07;4.40;;;14.80;99.90;;;;;;5057029;28;20041;-75
2022/08/19 03:21:37;;;;;;;7.50;3.90;;;14.80;99.90;;;;;;5057124;28;20041;-79
2022/08/19 03:24:06;;;;;;;6.07;3.78;;;14.70;99.90;;;;;;5057328;28;20035;-70
2022/08/19 03:26:32;;;;;;;10.23;4.30;;;14.70;99.90;;;;;;5057027;28;20048;-78
2022/08/19 03:29:02;;;;;;;6.90;4.07;;;14.80;99.90;;;;;;5040609;28;20033;-76
2022/08/19 03:31:28;;;;;;;6.10;3.45;;;14.70;99.90;;;;;;5040641;28;20044;-70
2022/08/19 03:33:54;;;;;;;7.05;3.58;;;15.10;99.90;;;;;;5057161;28;20369;-75
2022/08/19 03:36:22;;;;;;;8.38;4.40;;;14.70;99.90;;;;;;5056771;28;20033;-77
2022/08/19 03:38:51;;;;;;;8.23;4.13;;;14.70;99.90;;;;;;5056702;28;20082;-70
2022/08/19 03:41:25;;;;;;;8.73;4.15;;;14.70;99.90;;;;;;5040070;28;20055;-78
2022/08/19 03:43:53;;;;;;;5.75;3.88;;;14.90;99.90;;;;;;5056700;28;20040;-70
2022/08/19 03:46:25;;;;;;;7.63;4.32;;;14.80;99.90;;;;;;5039971;28;20041;-74
2022/08/19 03:48:56;;;;;;;9.93;4.50;;;14.80;99.90;;;;;;5056580;28;20047;-74
2022/08/19 03:51:28;;;;;;;6.25;3.70;;;14.90;99.90;;;;;;5056249;28;20457;-78
2022/08/19 03:53:55;;;;;;;8.55;3.88;;;14.70;99.90;;;;;;5056446;28;20037;-75
2022/08/19 03:56:21;;;;;;;5.32;3.72;;;14.80;99.90;;;;;;5056414;28;20051;-74
2022/08/19 03:58:47;;;;;;;7.53;4.45;;;14.80;99.90;;;;;;5056455;28;20040;-75
2022/08/19 04:01:20;;;;;;;7.47;4.47;;;15.00;99.90;;;;;;5039919;28;20131;-70
2022/08/19 04:03:46;;;;;;;6.07;3.80;;;14.90;99.90;;;;;;5056329;28;20040;-78
2022/08/19 04:06:34;;;;;;;7.47;4.38;;;14.80;99.90;;;;;;5039910;28;20395;-77
2022/08/19 04:09:04;;;;;;;10.25;4.95;;;14.80;99.90;;;;;;5056075;28;20040;-71
2022/08/19 04:11:41;;;;;;;7.85;4.40;;;14.80;99.90;;;;;;5056279;28;20040;-70
2022/08/19 04:14:09;;;;;;;6.13;3.97;;;14.90;99.90;;;;;;5056040;28;20044;-77
2022/08/19 04:16:35;;;;;;;7.13;4.22;;;14.90;99.90;;;;;;5039750;28;20048;-76
2022/08/19 04:19:03;;;;;;;7.25;4.38;;;14.80;99.90;;;;;;5039469;28;20040;-77
2022/08/19 04:21:29;;;;;;;7.88;4.47;;;14.80;99.90;;;;;;5039598;28;20071;-77
2022/08/19 04:23:56;;;;;;;8.25;4.70;;;14.90;99.90;;;;;;5023224;28;20120;-75
2022/08/19 04:26:32;;;;;;;9.88;4.38;;;15.10;99.90;;;;;;5056032;28;20483;-77
2022/08/19 04:29:04;;;;;;;9.32;4.70;;;14.80;99.90;;;;;;5055802;28;20044;-75
2022/08/19 04:31:35;;;;;;;8.40;4.53;;;14.90;99.90;;;;;;5039145;28;20469;-74
2022/08/19 04:34:03;;;;;;;8.20;4.00;;;14.90;99.90;;;;;;5055732;28;20040;-77
2022/08/19 04:36:31;;;;;;;10.55;5.00;;;14.90;99.90;;;;;;5055933;28;20036;-75
2022/08/19 04:38:59;;;;;;;8.55;4.28;;;15.00;99.90;;;;;;5055435;28;20040;-75
2022/08/19 04:44:11;;;;;;;5.75;3.42;;;14.90;99.90;;;;;;5055492;28;20177;-71
2022/08/19 04:46:37;;;;;;;6.00;3.17;;;14.90;99.90;;;;;;5055516;28;20036;-75
2022/08/19 04:49:05;;;;;;;8.25;4.85;;;14.90;99.90;;;;;;5038825;28;20068;-78
2022/08/19 04:51:33;;;;;;;8.93;4.18;;;14.90;99.90;;;;;;5038768;28;20403;-70
2022/08/19 04:54:01;;;;;;;8.40;4.50;;;14.90;99.90;;;;;;5038791;28;20032;-70
2022/08/19 04:56:27;;;;;;;7.82;4.90;;;15.00;99.90;;;;;;5055324;28;20128;-75
2022/08/19 04:58:55;;;;;;;6.97;4.28;;;15.00;99.90;;;;;;5055346;28;20085;-78
2022/08/19 05:01:25;;;;;;;6.00;3.80;;;15.10;99.90;;;;;;5038645;28;20044;-75
2022/08/19 05:03:52;;;;;;;9.20;4.55;;;15.10;99.90;;;;;;5038143;28;20102;-78
2022/08/19 05:06:20;;;;;;;10.23;4.68;;;15.10;99.90;;;;;;5055454;28;20106;-78
2022/08/19 05:08:46;;;;;;;7.88;4.30;;;15.10;99.90;;;;;;5055213;28;20047;-78
2022/08/19 05:11:21;;;;;;;9.75;5.55;;;15.20;99.90;;;;;;5055023;28;20484;-78
2022/08/19 05:13:48;;;;;;;12.55;4.40;;;15.20;99.90;;;;;;5055057;28;20048;-77
2022/08/19 05:16:17;;;;;;;7.53;4.22;;;15.30;99.90;;;;;;5055042;28;20051;-78
2022/08/19 05:24:14;;;;;;;8.75;4.90;;;15.30;99.90;;;;;;5055546;28;20044;-78
2022/08/19 05:26:42;;;;;;;8.50;4.50;;;15.40;99.90;;;;;;5038452;28;20113;-78
2022/08/19 05:29:09;;;;;;;7.00;4.82;;;15.40;99.90;;;;;;5038670;28;20041;-77
2022/08/19 05:31:36;;;;;;;11.60;5.35;;;15.50;99.90;;;;;;5022371;28;20419;-75
2022/08/19 05:34:03;;;;;;;7.30;4.20;;;15.50;99.90;;;;;;5038281;28;20120;-75
2022/08/19 05:36:38;;;;;;;9.95;4.97;;;15.50;99.90;;;;;;5006104;28;20040;-76
2022/08/19 05:39:04;;;;;;;7.07;4.70;;;15.60;99.90;;;;;;5054735;28;20045;-71
2022/08/19 05:41:30;;;;;;;7.15;4.13;;;15.70;99.90;;;;;;5054844;28;20135;-79
2022/08/19 05:43:57;;;;;;;8.38;4.80;;;15.80;99.90;;;;;;5038651;28;20070;-77
2022/08/19 05:46:24;;;;;;;7.45;5.07;;;16.00;99.90;;;;;;5039482;28;20047;-78
2022/08/19 05:48:50;;;;;;;8.43;5.18;;;16.00;99.90;;;;;;5055050;28;20089;-77
2022/08/19 05:51:16;;;;;;;9.23;4.55;;;16.00;99.90;;;;;;5038073;28;20043;-79
2022/08/19 05:53:45;;;;;;;9.43;5.82;;;16.00;99.90;;;;;;5054646;28;20463;-71
2022/08/19 05:56:18;;;;;;;9.70;5.30;;;16.30;99.90;;;;;;5038333;28;20048;-71
2022/08/19 05:58:45;;;;;;;9.48;4.90;;;16.30;99.90;;;;;;5038157;28;20044;-76
2022/08/19 06:01:14;;;;;;;7.93;4.85;;;16.30;99.90;;;;;;5038757;28;20122;-77
2022/08/19 06:03:40;;;;;;;9.75;5.00;;;16.50;99.90;;;;;;5038311;28;20391;-76
2022/08/19 06:06:08;;;;;;;7.72;4.47;;;16.30;99.90;;;;;;5038721;28;20131;-70
2022/08/19 06:08:36;;;;;;;7.15;4.53;;;16.60;99.90;;;;;;5054902;28;20045;-71
2022/08/19 06:11:19;;;;;;;12.40;5.03;;;16.70;99.90;;;;;;5038498;28;20048;-77
2022/08/19 06:13:47;;;;;;;9.02;4.38;;;;;;;;;;5054588;28;20048;-76
2022/08/19 06:16:20;;;;;;;5.68;4.15;;;;;;;;;;5058151;28;20045;-73
2022/08/19 06:18:46;;;;;;;7.72;4.43;;;;;;;;;;5041634;28;20036;-75
2022/08/19 06:21:12;;;;;;;10.15;3.83;;;;;;;;;;5058347;28;20036;-74
2022/08/19 06:23:39;;;;;;;8.40;5.20;;;;;;;;;;5041740;28;20044;-67
2022/08/19 06:26:05;;;;;;;6.82;4.00;;;;;;;;;;5058316;28;20094;-73
2022/08/19 06:28:32;;;;;;;6.90;4.13;;;17.50;99.90;;;;;;5041465;28;20102;-74
2022/08/19 06:30:58;;;;;;;10.55;3.97;;;17.40;99.90;;;;;;5041950;28;20051;-73
2022/08/19 06:33:24;;;;;;;6.05;3.75;;;17.50;99.90;;;;;;5041310;28;20036;-74
2022/08/19 06:35:49;;;;;;;6.72;4.50;;;17.60;99.90;;;;;;5058182;28;20040;-68
2022/08/19 06:38:15;;;;;;;8.77;3.88;;;17.80;99.90;;;;;;5041276;28;20047;-75
2022/08/19 06:40:41;;;;;;;6.25;3.38;;;;;;;;;;5075708;28;20052;-72
2022/08/19 06:43:07;;;;;;;5.40;3.53;;;18.10;99.90;;;;;;5058053;28;20101;-68
2022/08/19 06:45:32;;;;;;;6.15;4.05;;;18.20;99.90;;;;;;5041208;28;20129;-74
2022/08/19 06:47:58;;;;;;;5.18;3.35;;;18.40;99.90;;;;;;5057580;28;20492;-68
2022/08/19 06:50:24;;;;;;;4.53;3.38;;;18.60;99.90;;;;;;5041085;28;20040;-73
2022/08/19 06:52:50;;;;;;;6.15;3.53;;;18.60;99.90;;;;;;5057697;28;20415;-74
2022/08/19 06:55:16;;;;;;;5.40;3.03;;;18.80;99.90;;;;;;5040819;28;20044;-68
2022/08/19 06:57:42;;;;;;;4.93;3.40;;;18.90;99.90;;;;;;5024751;28;20076;-74
2022/08/19 07:00:13;;;;;;;8.90;3.70;;;18.90;99.90;;;;;;5040815;28;20526;-72
2022/08/19 07:02:43;;;;;;;3.63;2.75;;;19.10;99.90;;;;;;5057574;28;20377;-76
2022/08/19 07:05:09;;;;;;;5.35;3.65;;;19.20;99.90;;;;;;5040994;28;20048;-75
2022/08/19 07:07:35;;;;;;;5.30;3.15;;;19.30;99.90;;;;;;5041090;28;20044;-75
2022/08/19 07:10:01;;;;;;;5.70;2.95;;;19.40;99.90;;;;;;5057637;28;20394;-77
2022/08/19 07:12:35;;;;;;;5.45;3.13;;;19.50;99.90;;;;;;5057492;28;20040;-69
2022/08/19 07:15:00;;;;;;;6.38;3.40;;;19.60;99.90;;;;;;5057268;28;20040;-75
2022/08/19 07:17:26;;;;;;;4.93;3.28;;;19.70;99.90;;;;;;5024445;28;20702;-76
2022/08/19 07:19:52;;;;;;;9.32;3.80;;;19.80;99.90;;;;;;5057456;28;20036;-77
2022/08/19 07:22:20;;;;;;;5.22;3.00;;;19.90;99.90;;;;;;5040534;28;20037;-74
2022/08/19 07:24:46;;;;;;;5.63;3.10;;;20.00;99.90;;;;;;5057292;28;20051;-78
2022/08/19 07:27:14;;;;;;;5.82;2.97;;;20.10;99.90;;;;;;5023730;28;20041;-81
2022/08/19 07:29:40;;;;;;;3.85;2.83;;;20.20;99.90;;;;;;5040413;28;20033;-80
2022/08/19 07:32:06;;;;;;;6.35;3.75;;;20.30;99.90;;;;;;5024045;28;20036;-80
2022/08/19 07:34:36;;;;;;;5.25;3.38;;;20.40;99.90;;;;;;5056945;28;20399;-77
2022/08/19 07:37:05;;;;;;;6.22;3.88;;;20.50;99.90;;;;;;5024495;28;20479;-77
2022/08/19 07:39:34;;;;;;;5.88;3.80;;;20.60;99.90;;;;;;5057118;28;20084;-79
2022/08/19 07:42:03;;;;;;;6.40;3.63;;;20.70;99.90;;;;;;5056632;28;20080;-77
2022/08/19 07:44:29;;;;;;;6.35;3.72;;;20.80;99.90;;;;;;5056771;28;20044;-73
2022/08/19 07:46:57;;;;;;;4.63;3.00;;;20.90;99.90;;;;;;5057517;28;20102;-74
2022/08/19 07:49:23;;;;;;;4.55;3.10;;;21.00;99.90;;;;;;5056559;28;20067;-74
2022/08/19 07:51:56;;;;;;;5.38;3.97;;;21.00;99.90;;;;;;5007166;28;20043;-74
2022/08/19 07:54:24;;;;;;;5.22;3.42;;;21.10;99.90;;;;;;5056609;28;20037;-78
2022/08/19 07:56:52;;;;;;;5.63;3.40;;;21.20;99.90;;;;;;5056542;28;20384;-79
2022/08/19 07:59:20;;;;;;;5.57;3.75;;;21.30;99.90;;;;;;5023548;28;20073;-76
2022/08/19 08:01:46;;;;;;;5.75;3.92;;;21.50;99.90;;;;;;5023390;28;20040;-78
2022/08/19 08:09:43;;;;;;;7.95;3.22;;;21.70;99.90;;;;;;5056108;28;20080;-75
2022/08/19 08:12:24;;;;;;;6.22;3.50;;;21.70;99.90;;;;;;5023024;28;20044;-75
2022/08/19 08:14:53;;;;;;;4.97;3.58;;;21.80;99.90;;;;;;5056350;28;20043;-68
2022/08/19 08:17:22;;;;;;;6.07;3.50;;;21.90;99.90;;;;;;5055946;28;20037;-75
2022/08/19 08:19:49;;;;;;;5.47;3.50;;;22.00;99.90;;;;;;5039808;28;20085;-75
2022/08/19 08:25:16;;;;;;;5.47;3.42;;;22.10;99.90;;;;;;5055777;28;20106;-75
2022/08/19 08:27:43;;;;;;;7.80;3.30;;;22.20;99.90;;;;;;5039246;28;20051;-68
2022/08/19 08:30:12;;;;;;;5.40;3.40;;;22.30;99.90;;;;;;5039023;28;20286;-74
2022/08/19 08:32:39;;;;;;;4.38;2.72;;;22.30;99.90;;;;;;5039103;28;20450;-74
2022/08/19 08:35:06;;;;;;;4.55;3.20;;;22.50;99.90;;;;;;5073671;28;20041;-74
2022/08/19 08:37:32;;;;;;;5.60;3.38;;;22.70;99.90;;;;;;5055328;28;20048;-68
2022/08/19 08:39:58;;;;;;;3.72;2.70;;;22.60;99.90;;;;;;5018822;28;20515;-74
2022/08/19 08:42:36;;;;;;;7.60;2.63;;;22.70;99.90;;;;;;5052197;28;20526;-76
2022/08/19 08:45:15;;;;;;;3.97;2.40;;;22.80;99.90;;;;;;5035661;28;20052;-81
2022/08/19 08:47:46;;;;;;;2.70;1.83;;;22.90;99.90;;;;;;5053328;28;20060;-68
2022/08/19 08:50:24;;;;;;;4.10;2.50;;;22.90;99.90;;;;;;5039547;28;20045;-82
2022/08/19 08:52:55;;;;;;;3.60;2.25;;;23.00;99.90;;;;;;5036963;28;20045;-71
2022/08/19 08:55:26;;;;;;;5.63;2.20;;;23.10;99.90;;;;;;5052287;28;20072;-82
2022/08/19 08:58:06;;;;;;;4.22;2.20;;;23.20;99.90;;;;;;5052346;28;20127;-84
2022/08/19 09:00:38;;;;;;;4.80;2.57;;;23.20;99.90;;;;;;5052390;28;20500;-81
2022/08/19 09:03:15;;;;;;;4.32;2.30;;;23.30;99.90;;;;;;5052621;28;20048;-70
2022/08/19 09:06:01;;;;;;;3.25;2.38;;;23.30;99.90;;;;;;5051929;28;20044;-77
2022/08/19 09:08:57;;;;;;;3.85;2.60;;;23.30;99.90;;;;;;5035225;28;20072;-81
2022/08/19 09:11:31;;;;;;;3.40;2.30;;;23.40;99.90;;;;;;5052130;28;20133;-75
2022/08/19 09:14:04;;;;;;;4.32;2.35;;;23.40;99.90;;;;;;5052507;28;20037;-74
2022/08/19 09:16:30;;;;;;;3.00;2.15;;;23.50;99.90;;;;;;5051788;28;20045;-76
2022/08/19 09:19:01;;;;;;;7.05;3.60;;;23.50;99.90;;;;;;5035806;28;20041;-78
2022/08/19 09:21:27;;;;;;;3.80;2.55;;;23.50;99.90;;;;;;5052083;28;20554;-77
2022/08/19 09:23:53;;;;;;;4.35;2.60;;;23.50;99.90;;;;;;5051717;28;20045;-81
2022/08/19 09:26:22;;;;;;;5.00;2.90;;;23.60;99.90;;;;;;5035131;28;20432;-73
2022/08/19 09:28:49;;;;;;;6.53;2.92;;;23.60;99.90;;;;;;5051909;28;20041;-79
2022/08/19 09:31:18;;;;;;;3.40;2.28;;;23.70;99.90;;;;;;5051629;28;20044;-79
2022/08/19 09:33:45;;;;;;;5.60;2.70;;;23.80;99.90;;;;;;5051530;28;20179;-79
2022/08/19 09:36:13;;;;;;;4.15;3.22;;;23.80;99.90;;;;;;5051608;28;20048;-76
2022/08/19 09:38:42;;;;;;;5.38;3.33;;;23.80;99.90;;;;;;5051557;28;20037;-80
2022/08/19 09:41:13;;;;;;;6.85;3.45;;;23.80;99.90;;;;;;5031514;28;20501;-80
2022/08/19 09:43:40;;;;;;;3.58;2.50;;;23.80;99.90;;;;;;5015357;28;20033;-80
2022/08/19 09:46:09;;;;;;;5.13;3.58;;;24.20;99.90;;;;;;5015210;28;20492;-79
2022/08/19 09:48:36;;;;;;;6.80;3.60;;;23.90;99.90;;;;;;5015411;28;20041;-78
2022/08/19 09:51:07;;;;;;;6.38;3.50;;;;;;;;;;5018996;28;20519;-81
2022/08/19 09:53:34;;;;;;;5.03;3.45;;;24.10;99.90;;;;;;5019334;28;20045;-80
2022/08/19 09:56:00;;;;;;;7.38;4.40;;;24.20;99.90;;;;;;5003042;28;20101;-74
2022/08/19 09:58:27;;;;;;;6.75;4.20;;;24.30;99.90;;;;;;5052300;28;20560;-75
2022/08/19 10:00:54;;;;;;;5.82;3.45;;;24.40;99.90;;;;;;5019562;28;20045;-82
2022/08/19 10:03:20;;;;;;;4.00;3.33;;;24.50;99.90;;;;;;5019179;28;20049;-75
2022/08/19 10:05:49;;;;;;;4.95;3.70;;;24.50;99.90;;;;;;5052234;28;20041;-75
2022/08/19 10:08:25;;;;;;;4.78;3.38;;;24.60;99.90;;;;;;5035256;28;20072;-77
2022/08/19 10:10:52;;;;;;;4.38;3.53;;;24.70;99.90;;;;;;5018780;28;20080;-74
2022/08/19 10:13:23;;;;;;;5.72;3.83;;;24.80;99.90;;;;;;5035106;28;20049;-75
2022/08/19 10:15:52;;;;;;;6.38;3.35;;;24.90;99.90;;;;;;5051787;28;20045;-72
2022/08/19 10:18:20;;;;;;;6.07;3.80;;;24.90;99.90;;;;;;5019441;28;20045;-78
2022/08/19 10:20:48;;;;;;;5.18;3.45;;;25.00;99.90;;;;;;5018767;28;20052;-74
2022/08/19 10:23:15;;;;;;;4.88;2.95;;;25.10;99.90;;;;;;5034949;28;20110;-72
2022/08/19 10:25:42;;;;;;;5.18;2.85;;;25.10;99.90;;;;;;5034861;28;20045;-75
2022/08/19 10:28:11;;;;;;;3.92;2.85;;;25.10;99.90;;;;;;5019086;28;20505;-74
2022/08/19 10:30:38;;;;;;;7.25;3.05;;;25.20;99.90;;;;;;5020906;28;20048;-80
2022/08/19 10:33:04;;;;;;;6.05;3.55;;;25.20;99.90;;;;;;5035425;28;20045;-78
2022/08/19 10:35:30;;;;;;;5.05;3.15;;;25.20;99.90;;;;;;5051833;28;20111;-82
2022/08/19 10:38:01;;;;;;;4.25;3.17;;;25.30;99.90;;;;;;5034955;28;20041;-78
2022/08/19 10:40:27;;;;;;;;;;;25.30;99.90;;;;;;5021300;28;20058;-81
2022/08/19 10:42:56;;;;;;;6.25;2.75;;;25.20;99.90;;;;;;5020208;28;19917;-83
2022/08/19 10:45:26;;;;;;;3.50;2.90;;;25.30;99.90;;;;;;5036346;28;20049;-81
2022/08/19 10:47:55;;;;;;;6.03;3.72;;;25.40;99.90;;;;;;5019016;28;20401;-81
2022/08/19 10:53:10;;;;;;;4.80;3.03;;;25.30;99.90;;;;;;5037865;28;20041;-79
2022/08/19 10:58:23;;;;;;;5.10;3.50;;;25.20;99.90;;;;;;5034909;28;19971;-84
2022/08/19 11:00:58;;;;;;;3.85;2.72;;;25.30;99.90;;;;;;5034761;28;20069;-81
2022/08/19 11:03:25;;;;;;;4.38;2.90;;;25.40;99.90;;;;;;5035299;28;20049;-83
2022/08/19 11:06:05;;;;;;;6.40;3.70;;;25.50;99.90;;;;;;5017913;28;20053;-84
2022/08/19 11:08:32;;;;;;;5.97;3.38;;;25.60;99.90;;;;;;5017830;28;20045;-78
2022/08/19 11:11:00;;;;;;;6.03;3.47;;;25.80;99.90;;;;;;5034038;28;20042;-84
2022/08/19 11:13:31;;;;;;;6.28;3.17;;;25.90;99.90;;;;;;5033998;28;20045;-78
2022/08/19 11:16:08;;;;;;;5.40;3.13;;;25.90;99.90;;;;;;5001959;28;20047;-74
2022/08/19 11:18:37;;;;;;;3.95;2.85;;;26.10;99.90;;;;;;5033818;28;20056;-70
2022/08/19 11:21:18;;;;;;;5.00;3.22;;;26.20;99.90;;;;;;5017457;28;20037;-78
2022/08/19 11:23:46;;;;;;;4.47;3.13;;;26.10;99.90;;;;;;5033802;28;20080;-75
2022/08/19 11:26:13;;;;;;;5.53;3.42;;;25.90;99.90;;;;;;5033722;28;20045;-71
2022/08/19 11:28:39;;;;;;;3.75;2.78;;;25.70;99.90;;;;;;5034025;28;20041;-70
2022/08/19 11:31:11;;;;;;;4.10;3.33;;;25.50;99.90;;;;;;5033651;28;20191;-74
2022/08/19 11:33:37;;;;;;;4.65;3.38;;;25.20;99.90;;;;;;5017112;28;20096;-74
2022/08/19 11:36:03;;;;;;;5.45;3.13;;;25.20;99.90;;;;;;5033852;28;20484;-69
2022/08/19 11:38:30;;;;;;;4.10;3.03;;;25.30;99.90;;;;;;5033868;28;20041;-74
2022/08/19 11:41:01;;;;;;;5.03;3.22;;;25.40;99.90;;;;;;5033450;28;20057;-73
2022/08/19 11:43:27;;;;;;;4.82;2.88;;;25.60;99.90;;;;;;5033397;28;20045;-69
2022/08/19 11:45:57;;;;;;;5.32;3.65;;;25.70;99.90;;;;;;5033382;28;20037;-73
2022/08/19 11:48:24;;;;;;;4.27;2.83;;;25.80;99.90;;;;;;5033415;28;20056;-70
2022/08/19 11:50:51;;;;;;;4.75;3.30;;;26.00;99.90;;;;;;5016823;28;20299;-79
2022/08/19 11:53:19;;;;;;;4.70;3.20;;;26.00;99.90;;;;;;5000411;28;20053;-74
2022/08/19 11:55:45;;;;;;;4.72;3.00;;;26.10;99.90;;;;;;5016787;28;20048;-75
2022/08/19 11:58:12;;;;;;;4.40;2.90;;;26.30;99.90;;;;;;5016816;28;20049;-76
2022/08/19 12:00:39;;;;;;;5.72;2.95;;;26.50;99.90;;;;;;5016651;28;20127;-77
2022/08/19 12:03:05;;;;;;;5.25;2.90;;;26.80;99.90;;;;;;5033088;28;20049;-72
2022/08/19 12:05:31;;;;;;;5.03;3.40;;;26.80;99.90;;;;;;5033010;28;20428;-74
2022/08/19 12:07:57;;;;;;;4.07;3.28;;;26.90;99.90;;;;;;5016922;28;20037;-79
2022/08/19 12:10:23;;;;;;;5.00;3.00;;;27.00;99.90;;;;;;5032903;28;20045;-78
2022/08/19 12:12:49;;;;;;;6.20;3.33;;;27.10;99.90;;;;;;5016402;28;20033;-78
2022/08/19 12:15:14;;;;;;;4.45;3.50;;;27.00;99.90;;;;;;5016368;28;20046;-71
2022/08/19 12:17:41;;;;;;;5.35;3.38;;;27.10;99.90;;;;;;5016368;28;20488;-79
2022/08/19 12:20:10;;;;;;;4.50;2.85;;;27.20;99.90;;;;;;5016572;28;20042;-74
2022/08/19 12:22:42;;;;;;;4.00;2.65;;;27.30;99.90;;;;;;5032818;28;20073;-72
2022/08/19 12:25:10;;;;;;;4.82;3.00;;;27.40;99.90;;;;;;5000574;28;20508;-79
2022/08/19 12:27:37;;;;;;;4.38;2.95;;;27.20;99.90;;;;;;4999926;28;20090;-79
2022/08/19 12:30:04;;;;;;;3.58;3.17;;;27.10;99.90;;;;;;5016066;28;20124;-82
2022/08/19 12:32:30;;;;;;;4.70;3.60;;;27.10;99.90;;;;;;4999671;28;20073;-74
2022/08/19 12:34:56;;;;;;;5.30;3.20;;;27.20;99.90;;;;;;5032814;28;20092;-71
2022/08/19 12:37:22;;;;;;;6.20;3.90;;;27.30;99.90;;;;;;5032524;28;20515;-74
2022/08/19 12:39:48;;;;;;;4.82;3.80;;;27.20;99.90;;;;;;5002252;28;20045;-75
2022/08/19 12:42:14;;;;;;;6.30;3.80;;;27.10;99.90;;;;;;5016195;28;20048;-80
2022/08/19 12:44:42;;;;;;;5.72;4.53;;;27.00;99.90;;;;;;4999619;28;20424;-81
2022/08/19 12:47:10;;;;;;;5.57;4.00;;;26.80;99.90;;;;;;5016001;28;20045;-72
2022/08/19 12:49:39;;;;;;;5.45;3.92;;;26.60;99.90;;;;;;5015818;28;20073;-81
2022/08/19 12:52:07;;;;;;;5.72;4.18;;;26.60;99.90;;;;;;5000051;28;20056;-75
2022/08/19 12:54:34;;;;;;;5.55;4.07;;;26.50;99.90;;;;;;5032272;28;20055;-84
2022/08/19 12:57:00;;;;;;;6.45;4.25;;;26.40;99.90;;;;;;4999576;28;20041;-82
2022/08/19 12:59:27;;;;;;;4.88;3.55;;;26.30;99.90;;;;;;5016053;28;20128;-75
2022/08/19 13:01:52;;;;;;;5.20;4.32;;;26.30;99.90;;;;;;5032212;28;20416;-72
2022/08/19 13:04:18;;;;;;;4.93;3.78;;;26.30;99.90;;;;;;5032092;28;20095;-81
2022/08/19 13:06:44;;;;;;;5.55;3.50;;;26.40;99.90;;;;;;5015759;28;20124;-75
2022/08/19 13:09:10;;;;;;;4.03;3.00;;;26.40;99.90;;;;;;5031986;28;20476;-81
2022/08/19 13:11:36;;;;;;;3.13;2.40;;;26.50;99.90;;;;;;4999352;28;20072;-80
2022/08/19 13:14:03;;;;;;;4.53;2.70;;;26.60;99.90;;;;;;5031833;28;20084;-78
2022/08/19 13:16:29;;;;;;;3.67;2.47;;;26.60;99.90;;;;;;5032260;28;20152;-78
2022/08/19 13:18:56;;;;;;;2.88;2.42;;;26.70;99.90;;;;;;5015678;28;20045;-79
2022/08/19 13:21:24;;;;;;;3.28;2.60;;;26.80;99.90;;;;;;5031832;28;20045;-83